createdAt,value
2016-07-20T00:00:51.064Z,0
2016-07-20T00:01:51.059Z,0
2016-07-20T00:02:51.073Z,0
2016-07-20T00:03:51.072Z,0
2016-07-20T00:04:51.073Z,0
2016-07-20T00:05:51.081Z,0
2016-07-20T00:06:50.353Z,0
2016-07-20T00:07:51.077Z,0
2016-07-20T00:08:51.091Z,0
2016-07-20T00:09:51.088Z,0
2016-07-20T00:10:51.081Z,0
2016-07-20T00:11:51.085Z,0
2016-07-20T00:12:51.089Z,0
2016-07-20T00:13:51.085Z,0
2016-07-20T00:14:50.372Z,0
2016-07-20T00:15:51.093Z,0
2016-07-20T00:16:51.093Z,0
2016-07-20T00:19:31.365Z,0
2016-07-20T00:19:43.081Z,0
2016-07-20T00:20:43.796Z,0
2016-07-20T00:21:43.805Z,0
2016-07-20T00:22:43.805Z,0
2016-07-20T00:23:43.805Z,0
2016-07-20T00:24:43.809Z,0
2016-07-20T00:25:43.810Z,0
2016-07-20T00:26:43.814Z,0
2016-07-20T00:27:43.813Z,0
2016-07-20T00:28:43.821Z,0
2016-07-20T00:29:43.831Z,0
2016-07-20T00:30:43.822Z,0
2016-07-20T00:31:43.821Z,0
2016-07-20T00:32:43.826Z,0
2016-07-20T00:33:43.826Z,0
2016-07-20T00:34:44.130Z,0
2016-07-20T00:35:43.829Z,0
2016-07-20T00:36:43.838Z,0
2016-07-20T00:37:43.838Z,0
2016-07-20T00:38:43.834Z,0
2016-07-20T00:39:43.833Z,0
2016-07-20T00:40:43.838Z,0
2016-07-20T00:41:43.842Z,0
2016-07-20T00:42:44.194Z,0
2016-07-20T00:43:43.841Z,0
2016-07-20T00:44:43.846Z,0
2016-07-20T00:45:43.847Z,0
2016-07-20T00:46:43.850Z,0
2016-07-20T00:47:43.853Z,0
2016-07-20T00:48:43.854Z,0
2016-07-20T00:49:43.850Z,0
2016-07-20T00:50:43.855Z,0
2016-07-20T00:51:43.858Z,0
2016-07-20T00:52:43.859Z,0
2016-07-20T00:53:43.863Z,0
2016-07-20T00:54:43.862Z,0
2016-07-20T00:55:43.866Z,0
2016-07-20T00:56:43.866Z,0
2016-07-20T00:57:43.867Z,0
2016-07-20T00:58:43.875Z,0
2016-07-20T00:59:43.871Z,0
2016-07-20T01:00:43.874Z,0
2016-07-20T01:01:43.875Z,0
2016-07-20T01:02:43.879Z,0
2016-07-20T01:03:43.878Z,0
2016-07-20T01:04:43.879Z,0
2016-07-20T01:05:43.883Z,0
2016-07-20T01:06:43.874Z,0
2016-07-20T01:07:43.884Z,0
2016-07-20T01:08:43.887Z,0
2016-07-20T01:09:43.878Z,0
2016-07-20T01:10:43.899Z,0
2016-07-20T01:11:43.891Z,0
2016-07-20T01:12:43.175Z,0
2016-07-20T01:13:43.907Z,0
2016-07-20T01:14:43.895Z,0
2016-07-20T01:15:43.899Z,0
2016-07-20T01:16:43.899Z,0
2016-07-20T01:17:43.903Z,0
2016-07-20T01:18:43.183Z,0
2016-07-20T01:19:43.903Z,0
2016-07-20T01:20:43.907Z,0
2016-07-20T01:21:43.908Z,0
2016-07-20T01:22:43.908Z,0
2016-07-20T01:23:43.912Z,0
2016-07-20T01:24:43.923Z,0
2016-07-20T01:25:43.923Z,0
2016-07-20T01:26:44.116Z,0
2016-07-20T01:27:43.915Z,0
2016-07-20T01:28:43.940Z,0
2016-07-20T01:29:43.920Z,0
2016-07-20T01:30:43.923Z,0
2016-07-20T01:31:43.924Z,0
2016-07-20T01:32:43.923Z,0
2016-07-20T01:33:43.932Z,0
2016-07-20T01:34:43.929Z,0
2016-07-20T01:35:43.932Z,0
2016-07-20T01:36:43.932Z,0
2016-07-20T01:37:43.932Z,0
2016-07-20T01:38:43.936Z,0
2016-07-20T01:39:43.936Z,0
2016-07-20T01:40:43.220Z,0
2016-07-20T01:41:43.216Z,0
2016-07-20T01:42:43.940Z,0
2016-07-20T01:43:43.945Z,0
2016-07-20T01:44:43.954Z,0
2016-07-20T01:45:43.945Z,0
2016-07-20T01:46:43.949Z,0
2016-07-20T01:47:43.228Z,0
2016-07-20T01:48:43.953Z,0
2016-07-20T01:49:43.952Z,0
2016-07-20T01:50:43.954Z,0
2016-07-20T01:51:43.949Z,0
2016-07-20T01:52:43.957Z,0
2016-07-20T01:53:43.957Z,0
2016-07-20T01:54:43.248Z,0
2016-07-20T01:55:43.965Z,0
2016-07-20T01:56:43.965Z,0
2016-07-20T01:57:43.965Z,0
2016-07-20T01:58:43.966Z,0
2016-07-20T01:59:43.969Z,0
2016-07-20T02:00:43.966Z,0
2016-07-20T02:01:43.969Z,0
2016-07-20T02:02:43.974Z,0
2016-07-20T02:03:43.969Z,0
2016-07-20T02:04:43.977Z,0
2016-07-20T02:05:43.978Z,0
2016-07-20T02:06:43.262Z,0
2016-07-20T02:07:43.982Z,0
2016-07-20T02:08:43.981Z,0
2016-07-20T02:09:43.981Z,0
2016-07-20T02:10:43.986Z,0
2016-07-20T02:11:43.981Z,0
2016-07-20T02:12:43.990Z,0
2016-07-20T02:13:43.990Z,0
2016-07-20T02:14:43.985Z,0
2016-07-20T02:15:43.990Z,0
2016-07-20T02:16:43.994Z,0
2016-07-20T02:17:43.998Z,0
2016-07-20T02:18:43.998Z,0
2016-07-20T02:19:44.006Z,0
2016-07-20T02:20:44.002Z,0
2016-07-20T02:21:43.278Z,0
2016-07-20T02:22:44.002Z,0
2016-07-20T02:23:43.282Z,0
2016-07-20T02:24:44.005Z,0
2016-07-20T02:25:44.007Z,0
2016-07-20T02:26:44.010Z,0
2016-07-20T02:27:44.018Z,0
2016-07-20T02:28:44.015Z,0
2016-07-20T02:29:44.009Z,0
2016-07-20T02:30:44.018Z,0
2016-07-20T02:31:44.010Z,0
2016-07-20T02:32:44.014Z,0
2016-07-20T02:33:44.019Z,0
2016-07-20T02:34:44.014Z,0
2016-07-20T02:35:44.023Z,0
2016-07-20T02:36:44.022Z,0
2016-07-20T02:37:44.030Z,0
2016-07-20T02:38:44.035Z,0
2016-07-20T02:39:44.027Z,0
2016-07-20T02:40:44.031Z,0
2016-07-20T02:41:44.026Z,0
2016-07-20T02:42:44.026Z,0
2016-07-20T02:43:44.036Z,0
2016-07-20T02:44:44.046Z,0
2016-07-20T02:45:44.035Z,0
2016-07-20T02:46:44.039Z,0
2016-07-20T02:47:44.038Z,0
2016-07-20T02:48:44.043Z,0
2016-07-20T02:49:44.043Z,0
2016-07-20T02:50:44.042Z,0
2016-07-20T02:51:44.048Z,0
2016-07-20T02:52:44.047Z,0
2016-07-20T02:53:44.059Z,0
2016-07-20T02:54:44.051Z,0
2016-07-20T02:55:44.047Z,0
2016-07-20T02:56:44.048Z,0
2016-07-20T02:57:44.047Z,0
2016-07-20T02:58:44.067Z,0
2016-07-20T02:59:44.055Z,0
2016-07-20T03:00:44.056Z,0
2016-07-20T03:01:44.060Z,0
2016-07-20T03:02:44.071Z,0
2016-07-20T03:03:44.064Z,0
2016-07-20T03:04:44.064Z,0
2016-07-20T03:05:44.063Z,0
2016-07-20T03:06:44.066Z,0
2016-07-20T03:07:44.067Z,0
2016-07-20T03:08:44.067Z,0
2016-07-20T03:09:44.077Z,0
2016-07-20T03:10:44.072Z,0
2016-07-20T03:11:44.072Z,0
2016-07-20T03:12:44.071Z,0
2016-07-20T03:13:44.076Z,0
2016-07-20T03:14:44.075Z,0
2016-07-20T03:15:44.076Z,0
2016-07-20T03:16:43.360Z,0
2016-07-20T03:17:44.080Z,0
2016-07-20T03:18:44.080Z,0
2016-07-20T03:19:44.088Z,0
2016-07-20T03:20:44.080Z,0
2016-07-20T03:21:44.088Z,0
2016-07-20T03:22:44.084Z,0
2016-07-20T03:23:44.089Z,0
2016-07-20T03:24:44.089Z,0
2016-07-20T03:25:44.092Z,0
2016-07-20T03:26:44.092Z,0
2016-07-20T03:27:44.091Z,0
2016-07-20T03:28:44.096Z,0
2016-07-20T03:29:44.096Z,0
2016-07-20T03:30:44.096Z,0
2016-07-20T03:31:44.100Z,0
2016-07-20T03:32:44.108Z,0
2016-07-20T03:33:44.100Z,0
2016-07-20T03:34:44.101Z,0
2016-07-20T03:35:44.105Z,0
2016-07-20T03:36:43.377Z,4
2016-07-20T03:37:44.117Z,4
2016-07-20T03:38:44.105Z,4
2016-07-20T03:39:44.109Z,4
2016-07-20T03:40:44.113Z,4
2016-07-20T03:41:44.112Z,0
2016-07-20T03:42:44.113Z,0
2016-07-20T03:43:44.117Z,0
2016-07-20T03:44:44.117Z,4
2016-07-20T03:45:44.113Z,4
2016-07-20T03:46:44.121Z,4
2016-07-20T03:47:44.121Z,4
2016-07-20T03:48:42.678Z,4
2016-07-20T03:49:44.125Z,4
2016-07-20T03:50:44.126Z,4
2016-07-20T03:51:44.124Z,4
2016-07-20T03:52:44.121Z,4
2016-07-20T03:53:44.140Z,8
2016-07-20T03:54:44.129Z,8
2016-07-20T03:55:44.133Z,4
2016-07-20T03:56:44.133Z,8
2016-07-20T03:57:44.129Z,8
2016-07-20T03:58:44.133Z,8
2016-07-20T03:59:44.134Z,12
2016-07-20T04:00:44.137Z,8
2016-07-20T04:01:44.139Z,8
2016-07-20T04:02:44.137Z,12
2016-07-20T04:03:44.141Z,12
2016-07-20T04:04:44.141Z,12
2016-07-20T04:05:44.141Z,16
2016-07-20T04:06:44.146Z,20
2016-07-20T04:07:44.161Z,28
2016-07-20T04:08:44.142Z,28
2016-07-20T04:09:44.146Z,32
2016-07-20T04:10:44.149Z,36
2016-07-20T04:11:44.150Z,40
2016-07-20T04:12:44.150Z,44
2016-07-20T04:13:44.157Z,48
2016-07-20T04:14:44.154Z,48
2016-07-20T04:15:44.149Z,56
2016-07-20T04:16:44.158Z,60
2016-07-20T04:17:44.154Z,64
2016-07-20T04:18:44.158Z,68
2016-07-20T04:19:44.162Z,72
2016-07-20T04:20:44.162Z,76
2016-07-20T04:21:44.166Z,84
2016-07-20T04:22:44.157Z,88
2016-07-20T04:23:43.450Z,96
2016-07-20T04:24:43.442Z,100
2016-07-20T04:25:44.158Z,108
2016-07-20T04:26:44.171Z,108
2016-07-20T04:27:44.171Z,116
2016-07-20T04:28:44.171Z,120
2016-07-20T04:29:44.175Z,124
2016-07-20T04:30:44.173Z,132
2016-07-20T04:31:44.175Z,140
2016-07-20T04:32:44.173Z,144
2016-07-20T04:33:43.458Z,148
2016-07-20T04:34:44.178Z,156
2016-07-20T04:35:44.182Z,156
2016-07-20T04:36:44.190Z,164
2016-07-20T04:37:43.462Z,168
2016-07-20T04:38:44.182Z,172
2016-07-20T04:39:44.182Z,176
2016-07-20T04:40:44.196Z,184
2016-07-20T04:41:43.478Z,192
2016-07-20T04:42:44.181Z,192
2016-07-20T04:43:44.190Z,196
2016-07-20T04:44:44.191Z,200
2016-07-20T04:45:44.194Z,208
2016-07-20T04:46:44.207Z,212
2016-07-20T04:47:44.194Z,220
2016-07-20T04:48:44.194Z,220
2016-07-20T04:49:44.194Z,224
2016-07-20T04:50:44.198Z,232
2016-07-20T04:51:44.199Z,236
2016-07-20T04:52:44.212Z,236
2016-07-20T04:53:44.210Z,236
2016-07-20T04:54:44.202Z,244
2016-07-20T04:55:44.206Z,252
2016-07-20T04:56:44.206Z,256
2016-07-20T04:57:43.483Z,260
2016-07-20T04:58:44.210Z,264
2016-07-20T04:59:44.212Z,268
2016-07-20T05:00:44.215Z,268
2016-07-20T05:01:44.214Z,272
2016-07-20T05:02:43.495Z,276
2016-07-20T05:03:44.219Z,280
2016-07-20T05:04:44.214Z,284
2016-07-20T05:05:44.219Z,288
2016-07-20T05:06:44.222Z,288
2016-07-20T05:07:44.231Z,292
2016-07-20T05:08:44.223Z,292
2016-07-20T05:09:44.230Z,296
2016-07-20T05:10:44.227Z,300
2016-07-20T05:11:44.227Z,304
2016-07-20T05:12:44.232Z,308
2016-07-20T05:13:44.235Z,308
2016-07-20T05:14:44.236Z,312
2016-07-20T05:15:44.234Z,316
2016-07-20T05:16:44.235Z,320
2016-07-20T05:17:44.240Z,320
2016-07-20T05:18:43.515Z,320
2016-07-20T05:19:44.243Z,324
2016-07-20T05:20:44.244Z,328
2016-07-20T05:21:44.249Z,332
2016-07-20T05:22:44.247Z,336
2016-07-20T05:23:44.248Z,336
2016-07-20T05:24:44.244Z,336
2016-07-20T05:25:44.252Z,340
2016-07-20T05:26:44.251Z,344
2016-07-20T05:27:44.256Z,344
2016-07-20T05:28:44.255Z,344
2016-07-20T05:29:44.260Z,352
2016-07-20T05:30:44.267Z,352
2016-07-20T05:31:44.259Z,352
2016-07-20T05:32:44.276Z,356
2016-07-20T05:33:44.263Z,356
2016-07-20T05:34:43.555Z,360
2016-07-20T05:35:44.269Z,364
2016-07-20T05:36:44.275Z,368
2016-07-20T05:37:44.272Z,372
2016-07-20T05:38:44.273Z,372
2016-07-20T05:39:44.277Z,368
2016-07-20T05:40:44.277Z,372
2016-07-20T05:41:44.276Z,376
2016-07-20T05:42:44.292Z,380
2016-07-20T05:43:44.284Z,380
2016-07-20T05:44:44.285Z,384
2016-07-20T05:45:44.280Z,384
2016-07-20T05:46:43.564Z,388
2016-07-20T05:47:44.293Z,388
2016-07-20T05:48:44.292Z,388
2016-07-20T05:49:44.308Z,388
2016-07-20T05:50:44.297Z,392
2016-07-20T05:51:44.292Z,392
2016-07-20T05:52:44.302Z,400
2016-07-20T05:53:44.312Z,400
2016-07-20T05:54:44.301Z,400
2016-07-20T05:55:44.305Z,400
2016-07-20T05:56:44.309Z,404
2016-07-20T05:57:44.313Z,404
2016-07-20T05:58:44.324Z,404
2016-07-20T05:59:44.309Z,408
2016-07-20T06:00:44.317Z,408
2016-07-20T06:01:44.316Z,404
2016-07-20T06:02:44.321Z,408
2016-07-20T06:03:44.321Z,412
2016-07-20T06:04:44.324Z,408
2016-07-20T06:05:44.321Z,412
2016-07-20T06:06:44.325Z,412
2016-07-20T06:07:44.329Z,412
2016-07-20T06:08:44.333Z,412
2016-07-20T06:09:44.334Z,416
2016-07-20T06:10:44.337Z,420
2016-07-20T06:11:44.342Z,416
2016-07-20T06:12:44.345Z,420
2016-07-20T06:13:44.341Z,416
2016-07-20T06:14:43.625Z,420
2016-07-20T06:15:44.345Z,420
2016-07-20T06:16:44.349Z,420
2016-07-20T06:17:44.356Z,424
2016-07-20T06:18:44.357Z,428
2016-07-20T06:19:44.354Z,424
2016-07-20T06:20:44.353Z,428
2016-07-20T06:21:44.357Z,424
2016-07-20T06:22:44.402Z,428
2016-07-20T06:23:43.641Z,428
2016-07-20T06:24:44.366Z,432
2016-07-20T06:25:44.370Z,428
2016-07-20T06:26:44.361Z,432
2016-07-20T06:27:43.654Z,432
2016-07-20T06:28:44.374Z,432
2016-07-20T06:29:44.372Z,428
2016-07-20T06:30:44.377Z,428
2016-07-20T06:31:43.661Z,428
2016-07-20T06:32:44.382Z,428
2016-07-20T06:33:44.386Z,424
2016-07-20T06:34:44.389Z,424
2016-07-20T06:35:43.670Z,424
2016-07-20T06:36:44.390Z,424
2016-07-20T06:37:43.674Z,424
2016-07-20T06:38:44.405Z,420
2016-07-20T06:39:44.397Z,420
2016-07-20T06:40:44.402Z,420
2016-07-20T06:41:44.409Z,420
2016-07-20T06:42:44.406Z,420
2016-07-20T06:43:44.406Z,416
2016-07-20T06:44:44.410Z,416
2016-07-20T06:45:44.413Z,416
2016-07-20T06:46:44.414Z,416
2016-07-20T06:47:44.417Z,412
2016-07-20T06:48:44.418Z,408
2016-07-20T06:49:44.417Z,412
2016-07-20T06:50:44.774Z,412
2016-07-20T06:51:44.426Z,412
2016-07-20T06:52:44.425Z,408
2016-07-20T06:53:44.430Z,400
2016-07-20T06:54:44.441Z,400
2016-07-20T06:55:44.435Z,400
2016-07-20T06:56:43.719Z,396
2016-07-20T06:57:44.439Z,396
2016-07-20T06:58:44.442Z,396
2016-07-20T06:59:43.735Z,396
2016-07-20T07:00:43.727Z,396
2016-07-20T07:01:44.458Z,388
2016-07-20T07:02:44.450Z,392
2016-07-20T07:03:44.455Z,384
2016-07-20T07:04:44.459Z,388
2016-07-20T07:05:44.458Z,384
2016-07-20T07:06:44.462Z,384
2016-07-20T07:07:44.466Z,380
2016-07-20T07:08:44.466Z,376
2016-07-20T07:09:44.471Z,372
2016-07-20T07:10:44.470Z,376
2016-07-20T07:11:44.475Z,372
2016-07-20T07:12:44.475Z,372
2016-07-20T07:13:44.158Z,368
2016-07-20T07:14:44.483Z,368
2016-07-20T07:15:44.479Z,368
2016-07-20T07:16:44.487Z,368
2016-07-20T07:17:44.487Z,364
2016-07-20T07:18:44.491Z,360
2016-07-20T07:19:44.495Z,360
2016-07-20T07:20:44.496Z,364
2016-07-20T07:21:44.500Z,356
2016-07-20T07:22:44.504Z,360
2016-07-20T07:23:44.503Z,356
2016-07-20T07:24:44.508Z,356
2016-07-20T07:25:44.507Z,356
2016-07-20T07:26:44.512Z,352
2016-07-20T07:27:44.515Z,352
2016-07-20T07:28:44.515Z,352
2016-07-20T07:29:44.519Z,348
2016-07-20T07:30:44.519Z,348
2016-07-20T07:31:44.524Z,348
2016-07-20T07:32:44.528Z,348
2016-07-20T07:33:44.527Z,344
2016-07-20T07:34:44.536Z,344
2016-07-20T07:35:44.539Z,340
2016-07-20T07:36:43.815Z,344
2016-07-20T07:37:44.544Z,340
2016-07-20T07:38:44.540Z,336
2016-07-20T07:39:44.544Z,336
2016-07-20T07:40:44.544Z,336
2016-07-20T07:41:44.549Z,336
2016-07-20T07:42:44.896Z,332
2016-07-20T07:43:44.556Z,332
2016-07-20T07:44:44.556Z,332
2016-07-20T07:45:44.559Z,328
2016-07-20T07:46:44.564Z,328
2016-07-20T07:47:44.564Z,332
2016-07-20T07:48:44.568Z,328
2016-07-20T07:49:44.568Z,328
2016-07-20T07:50:44.572Z,328
2016-07-20T07:51:44.693Z,324
2016-07-20T07:52:44.576Z,328
2016-07-20T07:53:44.580Z,320
2016-07-20T07:54:44.585Z,320
2016-07-20T07:55:44.588Z,324
2016-07-20T07:56:44.593Z,324
2016-07-20T07:57:44.588Z,320
2016-07-20T07:58:44.593Z,320
2016-07-20T07:59:44.596Z,320
2016-07-20T08:00:44.600Z,320
2016-07-20T08:01:44.601Z,320
2016-07-20T08:02:44.604Z,320
2016-07-20T08:03:44.604Z,316
2016-07-20T08:04:43.900Z,320
2016-07-20T08:05:44.612Z,320
2016-07-20T08:06:44.616Z,316
2016-07-20T08:07:44.617Z,316
2016-07-20T08:08:44.620Z,316
2016-07-20T08:09:44.625Z,316
2016-07-20T08:10:43.904Z,312
2016-07-20T08:11:44.629Z,316
2016-07-20T08:12:43.916Z,312
2016-07-20T08:13:44.630Z,312
2016-07-20T08:14:44.636Z,312
2016-07-20T08:15:44.641Z,316
2016-07-20T08:16:44.641Z,312
2016-07-20T08:17:44.645Z,308
2016-07-20T08:18:44.649Z,312
2016-07-20T08:19:44.653Z,312
2016-07-20T08:20:44.654Z,312
2016-07-20T08:21:44.657Z,308
2016-07-20T08:22:44.661Z,304
2016-07-20T08:23:44.665Z,304
2016-07-20T08:24:44.665Z,304
2016-07-20T08:25:44.670Z,304
2016-07-20T08:26:44.672Z,300
2016-07-20T08:27:44.677Z,300
2016-07-20T08:28:44.677Z,304
2016-07-20T08:29:44.886Z,300
2016-07-20T08:30:44.681Z,300
2016-07-20T08:31:44.702Z,300
2016-07-20T08:32:44.690Z,292
2016-07-20T08:33:44.689Z,292
2016-07-20T08:34:45.042Z,292
2016-07-20T08:35:44.698Z,288
2016-07-20T08:36:44.706Z,292
2016-07-20T08:37:44.713Z,292
2016-07-20T08:38:44.709Z,288
2016-07-20T08:39:44.709Z,288
2016-07-20T08:40:44.709Z,284
2016-07-20T08:41:44.713Z,284
2016-07-20T08:42:44.717Z,284
2016-07-20T08:43:44.718Z,280
2016-07-20T08:44:44.721Z,280
2016-07-20T08:45:44.723Z,276
2016-07-20T08:46:44.734Z,280
2016-07-20T08:47:44.729Z,280
2016-07-20T08:48:44.733Z,276
2016-07-20T08:49:44.734Z,272
2016-07-20T08:50:44.738Z,272
2016-07-20T08:51:44.754Z,272
2016-07-20T08:52:44.746Z,272
2016-07-20T08:53:44.750Z,272
2016-07-20T08:54:44.750Z,268
2016-07-20T08:55:44.755Z,268
2016-07-20T08:56:44.755Z,268
2016-07-20T08:57:44.763Z,264
2016-07-20T08:58:44.772Z,268
2016-07-20T08:59:44.046Z,268
2016-07-20T09:00:44.782Z,264
2016-07-20T09:01:44.775Z,260
2016-07-20T09:02:44.775Z,260
2016-07-20T09:03:44.779Z,256
2016-07-20T09:04:44.798Z,256
2016-07-20T09:05:44.784Z,260
2016-07-20T09:06:44.786Z,260
2016-07-20T09:07:43.347Z,260
2016-07-20T09:08:44.796Z,256
2016-07-20T09:09:44.795Z,252
2016-07-20T09:10:44.795Z,252
2016-07-20T09:11:44.802Z,252
2016-07-20T09:12:44.807Z,248
2016-07-20T09:13:44.815Z,248
2016-07-20T09:14:44.811Z,248
2016-07-20T09:15:44.815Z,244
2016-07-20T09:16:44.815Z,248
2016-07-20T09:17:44.819Z,248
2016-07-20T09:18:44.822Z,240
2016-07-20T09:19:44.827Z,244
2016-07-20T09:20:44.828Z,240
2016-07-20T09:21:44.831Z,240
2016-07-20T09:22:44.835Z,240
2016-07-20T09:23:44.916Z,240
2016-07-20T09:24:44.839Z,240
2016-07-20T09:25:44.843Z,240
2016-07-20T09:26:45.148Z,240
2016-07-20T09:27:44.847Z,244
2016-07-20T09:28:44.852Z,240
2016-07-20T09:29:44.856Z,240
2016-07-20T09:30:44.860Z,236
2016-07-20T09:31:44.860Z,232
2016-07-20T09:32:44.868Z,232
2016-07-20T09:33:44.868Z,232
2016-07-20T09:34:44.871Z,228
2016-07-20T09:35:44.875Z,228
2016-07-20T09:36:44.876Z,228
2016-07-20T09:37:44.881Z,224
2016-07-20T09:38:44.875Z,224
2016-07-20T09:39:44.884Z,220
2016-07-20T09:40:44.892Z,216
2016-07-20T09:41:44.892Z,212
2016-07-20T09:42:44.896Z,208
2016-07-20T09:43:44.896Z,200
2016-07-20T09:44:44.901Z,196
2016-07-20T09:45:44.921Z,192
2016-07-20T09:46:44.908Z,184
2016-07-20T09:47:44.913Z,184
2016-07-20T09:48:44.913Z,176
2016-07-20T09:49:44.917Z,172
2016-07-20T09:50:44.921Z,168
2016-07-20T09:51:44.925Z,160
2016-07-20T09:52:44.924Z,156
2016-07-20T09:53:44.929Z,152
2016-07-20T09:54:44.937Z,152
2016-07-20T09:55:44.932Z,152
2016-07-20T09:56:44.936Z,152
2016-07-20T09:57:44.941Z,152
2016-07-20T09:58:44.945Z,152
2016-07-20T09:59:44.957Z,152
2016-07-20T10:00:44.961Z,152
2016-07-20T10:01:44.953Z,152
2016-07-20T10:02:44.958Z,152
2016-07-20T10:03:44.961Z,152
2016-07-20T10:04:44.961Z,156
2016-07-20T10:05:44.965Z,156
2016-07-20T10:06:44.969Z,152
2016-07-20T10:07:44.973Z,152
2016-07-20T10:08:44.977Z,152
2016-07-20T10:09:44.978Z,152
2016-07-20T10:10:44.981Z,152
2016-07-20T10:11:44.982Z,156
2016-07-20T10:12:44.985Z,156
2016-07-20T10:13:44.990Z,156
2016-07-20T10:14:44.993Z,156
2016-07-20T10:15:44.998Z,156
2016-07-20T10:16:45.001Z,152
2016-07-20T10:17:45.006Z,156
2016-07-20T10:18:45.013Z,156
2016-07-20T10:19:45.220Z,152
2016-07-20T10:20:45.014Z,156
2016-07-20T10:21:45.018Z,156
2016-07-20T10:22:45.017Z,156
2016-07-20T10:23:45.030Z,156
2016-07-20T10:24:45.025Z,156
2016-07-20T10:25:45.029Z,156
2016-07-20T10:26:45.034Z,156
2016-07-20T10:27:45.034Z,156
2016-07-20T10:28:45.042Z,156
2016-07-20T10:29:44.323Z,156
2016-07-20T10:30:45.041Z,156
2016-07-20T10:31:45.050Z,156
2016-07-20T10:32:45.050Z,156
2016-07-20T10:33:45.054Z,156
2016-07-20T10:34:45.054Z,156
2016-07-20T10:35:45.054Z,156
2016-07-20T10:36:45.062Z,156
2016-07-20T10:37:45.078Z,156
2016-07-20T10:38:45.065Z,156
2016-07-20T10:39:45.074Z,152
2016-07-20T10:40:45.074Z,156
2016-07-20T10:41:45.130Z,156
2016-07-20T10:42:45.083Z,156
2016-07-20T10:43:45.083Z,156
2016-07-20T10:44:45.087Z,156
2016-07-20T10:45:45.090Z,152
2016-07-20T10:46:45.095Z,156
2016-07-20T10:47:45.099Z,156
2016-07-20T10:48:45.102Z,156
2016-07-20T10:49:44.382Z,156
2016-07-20T10:50:45.110Z,156
2016-07-20T10:51:45.106Z,156
2016-07-20T10:52:45.110Z,156
2016-07-20T10:53:44.402Z,156
2016-07-20T10:54:44.419Z,152
2016-07-20T10:55:45.118Z,152
2016-07-20T10:56:45.123Z,156
2016-07-20T10:57:45.126Z,156
2016-07-20T10:58:45.131Z,152
2016-07-20T10:59:45.134Z,152
2016-07-20T11:00:45.135Z,152
2016-07-20T11:01:45.138Z,152
2016-07-20T11:02:45.143Z,152
2016-07-20T11:03:45.163Z,152
2016-07-20T11:04:45.151Z,152
2016-07-20T11:05:45.151Z,152
2016-07-20T11:06:45.347Z,152
2016-07-20T11:07:45.172Z,156
2016-07-20T11:08:45.163Z,156
2016-07-20T11:09:45.163Z,152
2016-07-20T11:10:45.168Z,156
2016-07-20T11:11:45.172Z,152
2016-07-20T11:12:45.179Z,152
2016-07-20T11:13:45.176Z,156
2016-07-20T11:14:45.183Z,156
2016-07-20T11:15:45.183Z,152
2016-07-20T11:16:45.188Z,152
2016-07-20T11:17:44.468Z,152
2016-07-20T11:18:45.191Z,152
2016-07-20T11:19:45.195Z,152
2016-07-20T11:20:45.199Z,152
2016-07-20T11:21:45.199Z,152
2016-07-20T11:22:44.484Z,152
2016-07-20T11:23:45.207Z,152
2016-07-20T11:24:45.211Z,152
2016-07-20T11:25:45.216Z,152
2016-07-20T11:26:44.499Z,152
2016-07-20T11:27:45.220Z,152
2016-07-20T11:28:45.224Z,152
2016-07-20T11:29:45.227Z,148
2016-07-20T11:30:45.228Z,152
2016-07-20T11:31:45.223Z,152
2016-07-20T11:32:45.236Z,152
2016-07-20T11:33:45.240Z,152
2016-07-20T11:34:45.244Z,148
2016-07-20T11:35:45.244Z,148
2016-07-20T11:36:45.248Z,148
2016-07-20T11:37:45.264Z,148
2016-07-20T11:38:45.256Z,148
2016-07-20T11:39:45.252Z,144
2016-07-20T11:40:45.260Z,148
2016-07-20T11:41:45.264Z,148
2016-07-20T11:42:45.269Z,144
2016-07-20T11:43:45.268Z,144
2016-07-20T11:44:45.276Z,148
2016-07-20T11:45:45.276Z,144
2016-07-20T11:46:45.281Z,144
2016-07-20T11:47:45.289Z,140
2016-07-20T11:48:45.284Z,144
2016-07-20T11:49:45.289Z,140
2016-07-20T11:50:45.293Z,140
2016-07-20T11:51:45.296Z,140
2016-07-20T11:52:45.296Z,140
2016-07-20T11:53:45.301Z,140
2016-07-20T11:54:45.304Z,136
2016-07-20T11:55:45.316Z,136
2016-07-20T11:56:45.304Z,140
2016-07-20T11:57:45.313Z,136
2016-07-20T11:58:45.317Z,140
2016-07-20T11:59:45.320Z,136
2016-07-20T12:00:45.324Z,136
2016-07-20T12:01:45.324Z,136
2016-07-20T12:02:45.328Z,136
2016-07-20T12:03:45.333Z,132
2016-07-20T12:04:45.596Z,132
2016-07-20T12:05:45.341Z,132
2016-07-20T12:06:44.616Z,136
2016-07-20T12:07:45.340Z,132
2016-07-20T12:08:45.353Z,128
2016-07-20T12:09:45.345Z,132
2016-07-20T12:10:45.353Z,124
2016-07-20T12:11:45.356Z,132
2016-07-20T12:12:45.361Z,128
2016-07-20T12:13:45.360Z,132
2016-07-20T12:14:45.373Z,128
2016-07-20T12:15:45.369Z,132
2016-07-20T12:16:45.372Z,124
2016-07-20T12:17:45.613Z,124
2016-07-20T12:18:45.376Z,124
2016-07-20T12:19:45.389Z,128
2016-07-20T12:20:45.380Z,128
2016-07-20T12:21:45.390Z,124
2016-07-20T12:22:45.389Z,120
2016-07-20T12:23:45.396Z,124
2016-07-20T12:24:45.409Z,120
2016-07-20T12:25:45.401Z,124
2016-07-20T12:26:45.418Z,120
2016-07-20T12:27:45.406Z,120
2016-07-20T12:28:45.413Z,120
2016-07-20T12:29:45.414Z,124
2016-07-20T12:30:45.415Z,120
2016-07-20T12:31:45.417Z,120
2016-07-20T12:32:45.421Z,120
2016-07-20T12:33:45.425Z,116
2016-07-20T12:34:45.426Z,116
2016-07-20T12:35:45.429Z,116
2016-07-20T12:36:45.438Z,112
2016-07-20T12:37:45.437Z,112
2016-07-20T12:38:45.437Z,112
2016-07-20T12:39:45.442Z,112
2016-07-20T12:40:45.444Z,112
2016-07-20T12:41:45.450Z,112
2016-07-20T12:42:45.453Z,112
2016-07-20T12:43:45.453Z,112
2016-07-20T12:44:45.457Z,108
2016-07-20T12:45:45.461Z,108
2016-07-20T12:46:45.461Z,108
2016-07-20T12:47:45.466Z,104
2016-07-20T12:48:45.474Z,104
2016-07-20T12:49:45.474Z,108
2016-07-20T12:50:45.478Z,108
2016-07-20T12:51:45.478Z,104
2016-07-20T12:52:45.482Z,108
2016-07-20T12:53:45.489Z,104
2016-07-20T12:54:45.490Z,104
2016-07-20T12:55:45.494Z,104
2016-07-20T12:56:45.495Z,104
2016-07-20T12:57:45.498Z,104
2016-07-20T12:58:45.502Z,104
2016-07-20T12:59:45.501Z,104
2016-07-20T13:00:45.506Z,100
2016-07-20T13:01:45.511Z,100
2016-07-20T13:02:45.513Z,100
2016-07-20T13:03:45.513Z,100
2016-07-20T13:04:45.518Z,96
2016-07-20T13:05:45.521Z,100
2016-07-20T13:06:45.557Z,96
2016-07-20T13:07:45.534Z,96
2016-07-20T13:08:45.533Z,96
2016-07-20T13:09:45.538Z,96
2016-07-20T13:10:45.538Z,96
2016-07-20T13:11:45.542Z,96
2016-07-20T13:12:45.546Z,92
2016-07-20T13:13:45.550Z,92
2016-07-20T13:14:45.549Z,96
2016-07-20T13:15:45.553Z,92
2016-07-20T13:16:45.558Z,92
2016-07-20T13:17:44.843Z,92
2016-07-20T13:18:45.561Z,92
2016-07-20T13:19:45.566Z,88
2016-07-20T13:20:45.570Z,88
2016-07-20T13:21:45.785Z,92
2016-07-20T13:22:45.573Z,88
2016-07-20T13:23:45.577Z,88
2016-07-20T13:24:45.582Z,92
2016-07-20T13:25:45.584Z,88
2016-07-20T13:26:45.590Z,88
2016-07-20T13:27:45.590Z,88
2016-07-20T13:28:45.594Z,88
2016-07-20T13:29:45.597Z,84
2016-07-20T13:30:45.602Z,88
2016-07-20T13:31:45.605Z,84
2016-07-20T13:32:45.606Z,84
2016-07-20T13:33:45.609Z,84
2016-07-20T13:34:45.613Z,88
2016-07-20T13:35:45.618Z,84
2016-07-20T13:36:45.617Z,84
2016-07-20T13:37:45.622Z,84
2016-07-20T13:38:45.625Z,84
2016-07-20T13:39:45.625Z,84
2016-07-20T13:40:45.629Z,84
2016-07-20T13:41:45.634Z,84
2016-07-20T13:42:45.637Z,84
2016-07-20T13:43:45.643Z,84
2016-07-20T13:44:45.642Z,80
2016-07-20T13:45:45.645Z,80
2016-07-20T13:46:45.654Z,80
2016-07-20T13:47:45.658Z,80
2016-07-20T13:48:45.657Z,80
2016-07-20T13:49:45.662Z,80
2016-07-20T13:50:45.662Z,80
2016-07-20T13:51:45.670Z,76
2016-07-20T13:52:45.670Z,76
2016-07-20T13:53:44.950Z,80
2016-07-20T13:54:45.673Z,80
2016-07-20T13:55:45.676Z,76
2016-07-20T13:56:45.681Z,76
2016-07-20T13:57:45.690Z,76
2016-07-20T13:58:45.685Z,76
2016-07-20T13:59:45.697Z,76
2016-07-20T14:00:45.689Z,76
2016-07-20T14:01:45.693Z,72
2016-07-20T14:02:45.697Z,72
2016-07-20T14:03:45.709Z,76
2016-07-20T14:04:45.722Z,76
2016-07-20T14:05:45.706Z,72
2016-07-20T14:06:45.715Z,72